sensor_id;sensor_type;location;lat;lon;timestamp;temperature;humidity
10692;DHT22;5396;50.950;6.988;2023-09-19T00:00:58;16.90;99.90
10692;DHT22;5396;50.950;6.988;2023-09-19T00:03:24;16.90;99.90
10692;DHT22;5396;50.950;6.988;2023-09-19T00:05:51;16.90;99.90
10692;DHT22;5396;50.950;6.988;2023-09-19T00:08:16;16.90;99.90
10692;DHT22;5396;50.950;6.988;2023-09-19T00:10:43;16.90;99.90
10692;DHT22;5396;50.950;6.988;2023-09-19T00:13:09;16.90;99.90
10692;DHT22;5396;50.950;6.988;2023-09-19T00:15:40;16.90;99.90
10692;DHT22;5396;50.950;6.988;2023-09-19T00:18:06;16.80;99.90
10692;DHT22;5396;50.950;6.988;2023-09-19T00:20:32;16.80;99.90
10692;DHT22;5396;50.950;6.988;2023-09-19T00:23:00;16.80;99.90
10692;DHT22;5396;50.950;6.988;2023-09-19T00:25:33;16.70;99.90
10692;DHT22;5396;50.950;6.988;2023-09-19T00:28:01;16.70;99.90
10692;DHT22;5396;50.950;6.988;2023-09-19T00:30:26;16.70;99.90
10692;DHT22;5396;50.950;6.988;2023-09-19T00:32:52;16.70;99.90
10692;DHT22;5396;50.950;6.988;2023-09-19T00:35:18;16.60;99.90
10692;DHT22;5396;50.950;6.988;2023-09-19T00:37:49;16.60;99.90
10692;DHT22;5396;50.950;6.988;2023-09-19T00:40:14;16.70;99.90
10692;DHT22;5396;50.950;6.988;2023-09-19T00:42:48;16.60;99.90
10692;DHT22;5396;50.950;6.988;2023-09-19T00:45:15;16.60;99.90
10692;DHT22;5396;50.950;6.988;2023-09-19T00:47:47;16.60;99.90
10692;DHT22;5396;50.950;6.988;2023-09-19T00:50:16;16.60;99.90
10692;DHT22;5396;50.950;6.988;2023-09-19T00:52:43;16.60;99.90
10692;DHT22;5396;50.950;6.988;2023-09-19T00:55:10;16.60;99.90
10692;DHT22;5396;50.950;6.988;2023-09-19T00:57:38;16.50;99.90
10692;DHT22;5396;50.950;6.988;2023-09-19T01:00:05;16.50;99.90
10692;DHT22;5396;50.950;6.988;2023-09-19T01:02:33;16.50;99.90
10692;DHT22;5396;50.950;6.988;2023-09-19T01:04:59;16.50;99.90
10692;DHT22;5396;50.950;6.988;2023-09-19T01:07:26;16.60;99.90
10692;DHT22;5396;50.950;6.988;2023-09-19T01:09:56;16.60;99.90
10692;DHT22;5396;50.950;6.988;2023-09-19T01:12:30;16.60;99.90
10692;DHT22;5396;50.950;6.988;2023-09-19T01:26:38;16.70;99.90
10692;DHT22;5396;50.950;6.988;2023-09-19T01:32:05;16.70;99.90
10692;DHT22;5396;50.950;6.988;2023-09-19T01:34:52;16.60;99.90
10692;DHT22;5396;50.950;6.988;2023-09-19T01:37:21;16.70;99.90
10692;DHT22;5396;50.950;6.988;2023-09-19T01:40:05;16.70;99.90
10692;DHT22;5396;50.950;6.988;2023-09-19T01:42:59;16.70;99.90
10692;DHT22;5396;50.950;6.988;2023-09-19T01:48:19;16.70;99.90
10692;DHT22;5396;50.950;6.988;2023-09-19T01:51:03;16.70;99.90
10692;DHT22;5396;50.950;6.988;2023-09-19T01:53:40;16.60;99.90
10692;DHT22;5396;50.950;6.988;2023-09-19T01:56:16;16.70;99.90
10692;DHT22;5396;50.950;6.988;2023-09-19T01:58:50;16.70;99.90
10692;DHT22;5396;50.950;6.988;2023-09-19T02:01:21;16.60;99.90
10692;DHT22;5396;50.950;6.988;2023-09-19T02:03:48;16.60;99.90
10692;DHT22;5396;50.950;6.988;2023-09-19T02:06:15;16.60;99.90
10692;DHT22;5396;50.950;6.988;2023-09-19T02:08:42;16.60;99.90
10692;DHT22;5396;50.950;6.988;2023-09-19T02:11:08;16.60;99.90
10692;DHT22;5396;50.950;6.988;2023-09-19T02:13:34;16.60;99.90
10692;DHT22;5396;50.950;6.988;2023-09-19T02:16:00;16.60;99.90
10692;DHT22;5396;50.950;6.988;2023-09-19T02:18:25;16.60;99.90
10692;DHT22;5396;50.950;6.988;2023-09-19T02:20:53;16.60;99.90
10692;DHT22;5396;50.950;6.988;2023-09-19T02:23:19;16.60;99.90
10692;DHT22;5396;50.950;6.988;2023-09-19T02:25:52;16.50;99.90
10692;DHT22;5396;50.950;6.988;2023-09-19T02:28:18;16.60;99.90
10692;DHT22;5396;50.950;6.988;2023-09-19T02:30:43;16.50;99.90
10692;DHT22;5396;50.950;6.988;2023-09-19T02:33:12;16.50;99.90
10692;DHT22;5396;50.950;6.988;2023-09-19T02:35:38;16.50;99.90
10692;DHT22;5396;50.950;6.988;2023-09-19T02:38:04;16.40;99.90
10692;DHT22;5396;50.950;6.988;2023-09-19T02:40:32;16.40;99.90
10692;DHT22;5396;50.950;6.988;2023-09-19T02:43:01;16.40;99.90
10692;DHT22;5396;50.950;6.988;2023-09-19T02:45:27;16.40;99.90
10692;DHT22;5396;50.950;6.988;2023-09-19T02:47:53;16.40;99.90
10692;DHT22;5396;50.950;6.988;2023-09-19T02:50:20;16.40;99.90
10692;DHT22;5396;50.950;6.988;2023-09-19T02:52:47;16.40;99.90
10692;DHT22;5396;50.950;6.988;2023-09-19T02:55:14;16.40;99.90
10692;DHT22;5396;50.950;6.988;2023-09-19T02:57:53;16.30;99.90
10692;DHT22;5396;50.950;6.988;2023-09-19T03:00:22;16.30;99.90
10692;DHT22;5396;50.950;6.988;2023-09-19T03:02:54;16.20;99.90
10692;DHT22;5396;50.950;6.988;2023-09-19T03:05:21;16.20;99.90
10692;DHT22;5396;50.950;6.988;2023-09-19T03:07:47;16.10;99.90
10692;DHT22;5396;50.950;6.988;2023-09-19T03:10:20;16.10;99.90
10692;DHT22;5396;50.950;6.988;2023-09-19T03:12:46;16.00;99.90
10692;DHT22;5396;50.950;6.988;2023-09-19T03:15:13;16.00;99.90
10692;DHT22;5396;50.950;6.988;2023-09-19T03:17:46;16.00;99.90
10692;DHT22;5396;50.950;6.988;2023-09-19T03:20:13;16.00;99.90
10692;DHT22;5396;50.950;6.988;2023-09-19T03:22:43;16.00;99.90
10692;DHT22;5396;50.950;6.988;2023-09-19T03:25:08;15.90;99.90
10692;DHT22;5396;50.950;6.988;2023-09-19T03:27:35;15.90;99.90
10692;DHT22;5396;50.950;6.988;2023-09-19T03:30:01;15.90;99.90
10692;DHT22;5396;50.950;6.988;2023-09-19T03:32:31;15.90;99.90
10692;DHT22;5396;50.950;6.988;2023-09-19T03:34:56;15.90;99.90
10692;DHT22;5396;50.950;6.988;2023-09-19T03:37:22;15.90;99.90
10692;DHT22;5396;50.950;6.988;2023-09-19T03:39:48;15.80;99.90
10692;DHT22;5396;50.950;6.988;2023-09-19T03:42:13;15.80;99.90
10692;DHT22;5396;50.950;6.988;2023-09-19T03:44:39;15.80;99.90
10692;DHT22;5396;50.950;6.988;2023-09-19T03:47:04;15.80;99.90
10692;DHT22;5396;50.950;6.988;2023-09-19T03:49:30;15.80;99.90
10692;DHT22;5396;50.950;6.988;2023-09-19T03:51:56;15.80;99.90
10692;DHT22;5396;50.950;6.988;2023-09-19T03:54:22;15.70;99.90
10692;DHT22;5396;50.950;6.988;2023-09-19T03:56:48;15.70;99.90
10692;DHT22;5396;50.950;6.988;2023-09-19T03:59:13;15.70;99.90
10692;DHT22;5396;50.950;6.988;2023-09-19T04:01:39;15.60;99.90
10692;DHT22;5396;50.950;6.988;2023-09-19T04:04:06;15.60;99.90
10692;DHT22;5396;50.950;6.988;2023-09-19T04:06:35;15.60;99.90
10692;DHT22;5396;50.950;6.988;2023-09-19T04:09:02;15.60;99.90
10692;DHT22;5396;50.950;6.988;2023-09-19T04:11:29;15.60;99.90
10692;DHT22;5396;50.950;6.988;2023-09-19T04:13:55;15.60;99.90
10692;DHT22;5396;50.950;6.988;2023-09-19T04:16:21;15.60;99.90
10692;DHT22;5396;50.950;6.988;2023-09-19T04:18:47;15.60;99.90
10692;DHT22;5396;50.950;6.988;2023-09-19T04:21:12;15.60;99.90
10692;DHT22;5396;50.950;6.988;2023-09-19T04:23:38;15.60;99.90
10692;DHT22;5396;50.950;6.988;2023-09-19T04:26:04;15.60;99.90
10692;DHT22;5396;50.950;6.988;2023-09-19T04:28:30;15.60;99.90
10692;DHT22;5396;50.950;6.988;2023-09-19T04:30:57;15.50;99.90
10692;DHT22;5396;50.950;6.988;2023-09-19T04:33:24;15.50;99.90
10692;DHT22;5396;50.950;6.988;2023-09-19T04:35:50;15.50;99.90
10692;DHT22;5396;50.950;6.988;2023-09-19T04:38:19;15.50;99.90
10692;DHT22;5396;50.950;6.988;2023-09-19T04:40:46;15.40;99.90
10692;DHT22;5396;50.950;6.988;2023-09-19T04:43:11;15.40;99.90
10692;DHT22;5396;50.950;6.988;2023-09-19T04:45:38;15.40;99.90
10692;DHT22;5396;50.950;6.988;2023-09-19T04:48:04;15.40;99.90
10692;DHT22;5396;50.950;6.988;2023-09-19T04:50:32;15.40;99.90
10692;DHT22;5396;50.950;6.988;2023-09-19T04:52:57;15.40;99.90
10692;DHT22;5396;50.950;6.988;2023-09-19T04:55:24;15.40;99.90
10692;DHT22;5396;50.950;6.988;2023-09-19T04:57:50;15.40;99.90
10692;DHT22;5396;50.950;6.988;2023-09-19T05:00:18;15.40;99.90
10692;DHT22;5396;50.950;6.988;2023-09-19T05:02:44;15.50;99.90
10692;DHT22;5396;50.950;6.988;2023-09-19T05:05:11;15.40;99.90
10692;DHT22;5396;50.950;6.988;2023-09-19T05:07:38;15.40;99.90
10692;DHT22;5396;50.950;6.988;2023-09-19T05:10:05;15.50;99.90
10692;DHT22;5396;50.950;6.988;2023-09-19T05:12:36;15.40;99.90
10692;DHT22;5396;50.950;6.988;2023-09-19T05:15:05;15.40;99.90
10692;DHT22;5396;50.950;6.988;2023-09-19T05:17:34;15.40;99.90
10692;DHT22;5396;50.950;6.988;2023-09-19T05:20:01;15.40;99.90
10692;DHT22;5396;50.950;6.988;2023-09-19T05:22:47;15.40;99.90
10692;DHT22;5396;50.950;6.988;2023-09-19T05:25:12;15.40;99.90
10692;DHT22;5396;50.950;6.988;2023-09-19T05:27:45;15.40;99.90
10692;DHT22;5396;50.950;6.988;2023-09-19T05:30:11;15.40;99.90
10692;DHT22;5396;50.950;6.988;2023-09-19T05:32:39;15.30;99.90
10692;DHT22;5396;50.950;6.988;2023-09-19T05:35:05;15.30;99.90
10692;DHT22;5396;50.950;6.988;2023-09-19T05:37:35;15.40;99.90
10692;DHT22;5396;50.950;6.988;2023-09-19T05:40:02;15.40;99.90
10692;DHT22;5396;50.950;6.988;2023-09-19T05:42:32;15.40;99.90
10692;DHT22;5396;50.950;6.988;2023-09-19T05:44:58;15.30;99.90
10692;DHT22;5396;50.950;6.988;2023-09-19T05:47:24;15.30;99.90
10692;DHT22;5396;50.950;6.988;2023-09-19T05:49:50;15.30;99.90
10692;DHT22;5396;50.950;6.988;2023-09-19T05:52:16;15.40;99.90
10692;DHT22;5396;50.950;6.988;2023-09-19T05:54:43;15.30;99.90
10692;DHT22;5396;50.950;6.988;2023-09-19T05:57:08;15.30;99.90
10692;DHT22;5396;50.950;6.988;2023-09-19T05:59:36;15.30;99.90
10692;DHT22;5396;50.950;6.988;2023-09-19T06:02:01;15.30;99.90
10692;DHT22;5396;50.950;6.988;2023-09-19T06:04:27;15.30;99.90
10692;DHT22;5396;50.950;6.988;2023-09-19T06:06:53;15.30;99.90
10692;DHT22;5396;50.950;6.988;2023-09-19T06:09:18;15.30;99.90
10692;DHT22;5396;50.950;6.988;2023-09-19T06:11:44;15.40;99.90
10692;DHT22;5396;50.950;6.988;2023-09-19T06:14:12;15.40;99.90
10692;DHT22;5396;50.950;6.988;2023-09-19T06:16:38;15.40;99.90
10692;DHT22;5396;50.950;6.988;2023-09-19T06:19:04;15.40;99.90
10692;DHT22;5396;50.950;6.988;2023-09-19T06:21:34;15.40;99.90
10692;DHT22;5396;50.950;6.988;2023-09-19T06:24:01;15.40;99.90
10692;DHT22;5396;50.950;6.988;2023-09-19T06:26:28;15.40;99.90
10692;DHT22;5396;50.950;6.988;2023-09-19T06:28:55;15.40;99.90
10692;DHT22;5396;50.950;6.988;2023-09-19T06:31:21;15.40;99.90
10692;DHT22;5396;50.950;6.988;2023-09-19T06:33:48;15.50;99.90
10692;DHT22;5396;50.950;6.988;2023-09-19T06:36:14;15.50;99.90
10692;DHT22;5396;50.950;6.988;2023-09-19T06:38:40;15.50;99.90
10692;DHT22;5396;50.950;6.988;2023-09-19T06:41:06;15.50;99.90
10692;DHT22;5396;50.950;6.988;2023-09-19T06:43:35;15.40;99.90
10692;DHT22;5396;50.950;6.988;2023-09-19T06:46:03;15.40;99.90
10692;DHT22;5396;50.950;6.988;2023-09-19T06:48:29;15.40;99.90
10692;DHT22;5396;50.950;6.988;2023-09-19T06:50:56;15.40;99.90
10692;DHT22;5396;50.950;6.988;2023-09-19T06:53:24;15.40;99.90
10692;DHT22;5396;50.950;6.988;2023-09-19T06:55:50;15.50;99.90
10692;DHT22;5396;50.950;6.988;2023-09-19T06:58:16;15.60;99.90
10692;DHT22;5396;50.950;6.988;2023-09-19T07:00:43;15.60;99.90
10692;DHT22;5396;50.950;6.988;2023-09-19T07:03:10;15.70;99.90
10692;DHT22;5396;50.950;6.988;2023-09-19T07:05:39;15.70;99.90
10692;DHT22;5396;50.950;6.988;2023-09-19T07:08:06;15.70;99.90
10692;DHT22;5396;50.950;6.988;2023-09-19T07:10:32;15.70;99.90
10692;DHT22;5396;50.950;6.988;2023-09-19T07:13:06;15.70;99.90
10692;DHT22;5396;50.950;6.988;2023-09-19T07:15:36;15.80;99.90
10692;DHT22;5396;50.950;6.988;2023-09-19T07:18:05;15.80;99.90
10692;DHT22;5396;50.950;6.988;2023-09-19T07:20:32;15.80;99.90
10692;DHT22;5396;50.950;6.988;2023-09-19T07:22:58;15.90;99.90
10692;DHT22;5396;50.950;6.988;2023-09-19T07:25:30;15.90;99.90
10692;DHT22;5396;50.950;6.988;2023-09-19T07:27:59;16.00;99.90
10692;DHT22;5396;50.950;6.988;2023-09-19T07:30:26;16.00;99.90
10692;DHT22;5396;50.950;6.988;2023-09-19T07:32:52;16.10;99.90
10692;DHT22;5396;50.950;6.988;2023-09-19T07:35:18;16.10;99.90
10692;DHT22;5396;50.950;6.988;2023-09-19T07:37:46;16.10;99.90
10692;DHT22;5396;50.950;6.988;2023-09-19T07:40:15;16.10;99.90
10692;DHT22;5396;50.950;6.988;2023-09-19T07:42:41;16.10;99.90
10692;DHT22;5396;50.950;6.988;2023-09-19T07:45:08;16.10;99.90
10692;DHT22;5396;50.950;6.988;2023-09-19T07:47:34;16.10;99.90
10692;DHT22;5396;50.950;6.988;2023-09-19T07:50:01;16.10;99.90
10692;DHT22;5396;50.950;6.988;2023-09-19T07:52:28;16.20;99.90
10692;DHT22;5396;50.950;6.988;2023-09-19T07:54:54;16.20;99.90
10692;DHT22;5396;50.950;6.988;2023-09-19T07:57:20;16.30;99.90
10692;DHT22;5396;50.950;6.988;2023-09-19T07:59:46;16.40;99.90
10692;DHT22;5396;50.950;6.988;2023-09-19T08:02:11;16.50;99.90
10692;DHT22;5396;50.950;6.988;2023-09-19T08:04:43;16.50;99.90
10692;DHT22;5396;50.950;6.988;2023-09-19T08:07:12;16.70;99.90
10692;DHT22;5396;50.950;6.988;2023-09-19T08:09:38;16.70;99.90
10692;DHT22;5396;50.950;6.988;2023-09-19T08:12:05;16.70;99.90
10692;DHT22;5396;50.950;6.988;2023-09-19T08:14:33;16.80;99.90
10692;DHT22;5396;50.950;6.988;2023-09-19T08:16:59;16.80;99.90
10692;DHT22;5396;50.950;6.988;2023-09-19T08:19:26;16.80;99.90
10692;DHT22;5396;50.950;6.988;2023-09-19T08:21:57;16.90;99.90
10692;DHT22;5396;50.950;6.988;2023-09-19T08:24:27;17.00;99.90
10692;DHT22;5396;50.950;6.988;2023-09-19T08:26:57;17.10;99.90
10692;DHT22;5396;50.950;6.988;2023-09-19T08:29:24;17.30;99.90
10692;DHT22;5396;50.950;6.988;2023-09-19T08:31:56;17.40;99.90
10692;DHT22;5396;50.950;6.988;2023-09-19T08:34:25;17.50;99.90
10692;DHT22;5396;50.950;6.988;2023-09-19T08:36:53;17.60;99.90
10692;DHT22;5396;50.950;6.988;2023-09-19T08:39:25;17.80;99.90
10692;DHT22;5396;50.950;6.988;2023-09-19T08:42:01;17.80;99.90
10692;DHT22;5396;50.950;6.988;2023-09-19T08:44:28;17.90;99.90
10692;DHT22;5396;50.950;6.988;2023-09-19T08:47:09;17.90;99.90
10692;DHT22;5396;50.950;6.988;2023-09-19T08:52:08;17.80;99.90
10692;DHT22;5396;50.950;6.988;2023-09-19T08:54:38;17.80;99.90
10692;DHT22;5396;50.950;6.988;2023-09-19T08:57:07;17.80;99.90
10692;DHT22;5396;50.950;6.988;2023-09-19T08:59:38;17.90;99.90
10692;DHT22;5396;50.950;6.988;2023-09-19T09:02:16;18.00;99.90
10692;DHT22;5396;50.950;6.988;2023-09-19T09:04:45;18.00;99.90
10692;DHT22;5396;50.950;6.988;2023-09-19T09:07:12;18.00;99.90
10692;DHT22;5396;50.950;6.988;2023-09-19T09:09:42;18.00;99.90
10692;DHT22;5396;50.950;6.988;2023-09-19T09:12:11;18.00;99.90
10692;DHT22;5396;50.950;6.988;2023-09-19T09:14:39;17.90;99.90
10692;DHT22;5396;50.950;6.988;2023-09-19T09:17:05;17.90;99.90
10692;DHT22;5396;50.950;6.988;2023-09-19T09:19:30;18.00;99.90
10692;DHT22;5396;50.950;6.988;2023-09-19T09:22:09;18.00;99.90
10692;DHT22;5396;50.950;6.988;2023-09-19T09:24:34;18.00;99.90
10692;DHT22;5396;50.950;6.988;2023-09-19T09:27:04;18.20;99.90
10692;DHT22;5396;50.950;6.988;2023-09-19T09:32:24;18.30;99.90
10692;DHT22;5396;50.950;6.988;2023-09-19T09:34:54;18.40;99.90
10692;DHT22;5396;50.950;6.988;2023-09-19T09:37:20;18.40;99.90
10692;DHT22;5396;50.950;6.988;2023-09-19T09:39:55;18.50;99.90
10692;DHT22;5396;50.950;6.988;2023-09-19T09:42:33;18.50;99.90
10692;DHT22;5396;50.950;6.988;2023-09-19T09:48:00;18.70;99.90
10692;DHT22;5396;50.950;6.988;2023-09-19T09:50:33;18.80;99.90
10692;DHT22;5396;50.950;6.988;2023-09-19T09:53:24;18.80;99.90
10692;DHT22;5396;50.950;6.988;2023-09-19T09:58:37;18.90;99.90
10692;DHT22;5396;50.950;6.988;2023-09-19T10:01:06;18.90;99.90
10692;DHT22;5396;50.950;6.988;2023-09-19T10:03:39;18.90;99.90
10692;DHT22;5396;50.950;6.988;2023-09-19T10:06:10;19.00;99.90
10692;DHT22;5396;50.950;6.988;2023-09-19T10:12:03;19.10;99.90
10692;DHT22;5396;50.950;6.988;2023-09-19T10:14:35;19.30;99.90
10692;DHT22;5396;50.950;6.988;2023-09-19T10:17:05;19.30;99.90
10692;DHT22;5396;50.950;6.988;2023-09-19T10:19:37;19.20;99.90
10692;DHT22;5396;50.950;6.988;2023-09-19T10:22:05;19.40;99.90
10692;DHT22;5396;50.950;6.988;2023-09-19T10:24:35;19.60;99.90
10692;DHT22;5396;50.950;6.988;2023-09-19T10:27:04;19.60;99.90
10692;DHT22;5396;50.950;6.988;2023-09-19T10:29:34;19.60;99.90
10692;DHT22;5396;50.950;6.988;2023-09-19T10:32:02;19.40;99.90
10692;DHT22;5396;50.950;6.988;2023-09-19T10:34:40;19.40;99.90
10692;DHT22;5396;50.950;6.988;2023-09-19T10:37:08;19.50;99.90
10692;DHT22;5396;50.950;6.988;2023-09-19T10:39:39;19.50;99.90
10692;DHT22;5396;50.950;6.988;2023-09-19T10:42:06;19.60;99.90
10692;DHT22;5396;50.950;6.988;2023-09-19T10:44:38;19.80;99.90
10692;DHT22;5396;50.950;6.988;2023-09-19T10:47:09;19.80;99.90
10692;DHT22;5396;50.950;6.988;2023-09-19T10:49:35;19.60;99.90
10692;DHT22;5396;50.950;6.988;2023-09-19T10:52:01;19.50;99.90
10692;DHT22;5396;50.950;6.988;2023-09-19T10:54:31;19.50;99.90
10692;DHT22;5396;50.950;6.988;2023-09-19T10:56:59;19.60;99.90
10692;DHT22;5396;50.950;6.988;2023-09-19T10:59:36;19.80;99.90
10692;DHT22;5396;50.950;6.988;2023-09-19T11:02:17;19.80;99.90
10692;DHT22;5396;50.950;6.988;2023-09-19T11:04:43;19.80;99.90
10692;DHT22;5396;50.950;6.988;2023-09-19T11:07:14;19.90;99.90
10692;DHT22;5396;50.950;6.988;2023-09-19T11:16:02;20.20;99.90
10692;DHT22;5396;50.950;6.988;2023-09-19T11:26:47;20.40;99.90
10692;DHT22;5396;50.950;6.988;2023-09-19T11:29:29;20.40;99.90
10692;DHT22;5396;50.950;6.988;2023-09-19T11:31:56;20.40;99.90
10692;DHT22;5396;50.950;6.988;2023-09-19T11:39:39;20.60;99.90
10692;DHT22;5396;50.950;6.988;2023-09-19T11:42:43;20.80;99.90
10692;DHT22;5396;50.950;6.988;2023-09-19T11:46:01;21.00;99.90
10692;DHT22;5396;50.950;6.988;2023-09-19T11:48:23;20.80;99.90
10692;DHT22;5396;50.950;6.988;2023-09-19T11:50:52;20.60;99.90
10692;DHT22;5396;50.950;6.988;2023-09-19T11:53:18;20.50;99.90
10692;DHT22;5396;50.950;6.988;2023-09-19T11:55:45;20.40;99.90
10692;DHT22;5396;50.950;6.988;2023-09-19T11:58:17;20.40;99.90
10692;DHT22;5396;50.950;6.988;2023-09-19T12:00:45;20.60;99.90
10692;DHT22;5396;50.950;6.988;2023-09-19T12:03:12;20.90;99.90
10692;DHT22;5396;50.950;6.988;2023-09-19T12:05:39;21.00;99.90
10692;DHT22;5396;50.950;6.988;2023-09-19T12:08:05;21.00;99.90
10692;DHT22;5396;50.950;6.988;2023-09-19T12:10:45;20.90;99.90
10692;DHT22;5396;50.950;6.988;2023-09-19T12:13:16;20.80;99.90
10692;DHT22;5396;50.950;6.988;2023-09-19T12:15:42;20.90;99.90
10692;DHT22;5396;50.950;6.988;2023-09-19T12:18:25;20.90;99.90
10692;DHT22;5396;50.950;6.988;2023-09-19T12:20:51;20.90;99.90
10692;DHT22;5396;50.950;6.988;2023-09-19T12:23:17;21.00;99.90
10692;DHT22;5396;50.950;6.988;2023-09-19T12:25:43;21.00;99.90
10692;DHT22;5396;50.950;6.988;2023-09-19T12:28:12;20.80;99.90
10692;DHT22;5396;50.950;6.988;2023-09-19T12:30:37;20.80;99.90
10692;DHT22;5396;50.950;6.988;2023-09-19T12:33:18;20.70;99.90
10692;DHT22;5396;50.950;6.988;2023-09-19T12:35:50;20.70;99.90
10692;DHT22;5396;50.950;6.988;2023-09-19T12:40:51;20.70;99.90
10692;DHT22;5396;50.950;6.988;2023-09-19T12:43:18;20.90;99.90
10692;DHT22;5396;50.950;6.988;2023-09-19T12:45:44;21.10;99.90
10692;DHT22;5396;50.950;6.988;2023-09-19T12:48:26;20.90;99.90
10692;DHT22;5396;50.950;6.988;2023-09-19T12:51:06;20.90;99.90
10692;DHT22;5396;50.950;6.988;2023-09-19T12:53:37;21.20;99.90
10692;DHT22;5396;50.950;6.988;2023-09-19T12:56:10;21.40;99.90
10692;DHT22;5396;50.950;6.988;2023-09-19T12:59:02;21.30;99.90
10692;DHT22;5396;50.950;6.988;2023-09-19T13:01:29;21.40;99.90
10692;DHT22;5396;50.950;6.988;2023-09-19T13:04:14;22.40;99.90
10692;DHT22;5396;50.950;6.988;2023-09-19T13:06:46;23.30;99.90
10692;DHT22;5396;50.950;6.988;2023-09-19T13:09:14;23.90;99.90
10692;DHT22;5396;50.950;6.988;2023-09-19T13:11:40;24.40;99.90
10692;DHT22;5396;50.950;6.988;2023-09-19T13:14:25;24.80;99.90
10692;DHT22;5396;50.950;6.988;2023-09-19T13:17:01;25.20;99.90
10692;DHT22;5396;50.950;6.988;2023-09-19T13:19:48;25.50;99.90
10692;DHT22;5396;50.950;6.988;2023-09-19T13:22:38;25.30;99.90
10692;DHT22;5396;50.950;6.988;2023-09-19T13:25:07;25.40;99.90
10692;DHT22;5396;50.950;6.988;2023-09-19T13:27:32;25.40;99.90
10692;DHT22;5396;50.950;6.988;2023-09-19T13:29:59;25.60;99.90
10692;DHT22;5396;50.950;6.988;2023-09-19T13:32:25;25.00;99.90
10692;DHT22;5396;50.950;6.988;2023-09-19T13:34:50;24.00;99.90
10692;DHT22;5396;50.950;6.988;2023-09-19T13:37:17;23.70;99.90
10692;DHT22;5396;50.950;6.988;2023-09-19T13:39:43;24.00;99.90
10692;DHT22;5396;50.950;6.988;2023-09-19T13:42:13;24.10;99.90
10692;DHT22;5396;50.950;6.988;2023-09-19T13:44:38;24.60;99.90
10692;DHT22;5396;50.950;6.988;2023-09-19T13:47:06;23.90;99.90
10692;DHT22;5396;50.950;6.988;2023-09-19T13:49:35;23.30;99.90
10692;DHT22;5396;50.950;6.988;2023-09-19T13:52:02;22.80;99.90
10692;DHT22;5396;50.950;6.988;2023-09-19T13:54:30;22.70;99.90
10692;DHT22;5396;50.950;6.988;2023-09-19T13:56:55;23.20;99.90
10692;DHT22;5396;50.950;6.988;2023-09-19T13:59:21;23.30;99.90
10692;DHT22;5396;50.950;6.988;2023-09-19T14:01:51;24.30;99.90
10692;DHT22;5396;50.950;6.988;2023-09-19T14:04:19;25.10;99.90
10692;DHT22;5396;50.950;6.988;2023-09-19T14:06:44;25.40;99.90
10692;DHT22;5396;50.950;6.988;2023-09-19T14:09:11;26.10;99.90
10692;DHT22;5396;50.950;6.988;2023-09-19T14:11:38;25.70;99.90
10692;DHT22;5396;50.950;6.988;2023-09-19T14:14:04;25.00;99.90
10692;DHT22;5396;50.950;6.988;2023-09-19T14:16:30;24.00;99.90
10692;DHT22;5396;50.950;6.988;2023-09-19T14:18:57;23.10;99.90
10692;DHT22;5396;50.950;6.988;2023-09-19T14:21:23;22.70;99.90
10692;DHT22;5396;50.950;6.988;2023-09-19T14:23:49;22.00;99.90
10692;DHT22;5396;50.950;6.988;2023-09-19T14:26:15;21.60;99.90
10692;DHT22;5396;50.950;6.988;2023-09-19T14:28:42;21.40;99.90
10692;DHT22;5396;50.950;6.988;2023-09-19T14:31:09;21.20;99.90
10692;DHT22;5396;50.950;6.988;2023-09-19T14:33:35;21.10;99.90
10692;DHT22;5396;50.950;6.988;2023-09-19T14:36:08;21.20;99.90
10692;DHT22;5396;50.950;6.988;2023-09-19T14:38:35;21.20;99.90
10692;DHT22;5396;50.950;6.988;2023-09-19T14:41:05;21.10;99.90
10692;DHT22;5396;50.950;6.988;2023-09-19T14:43:31;21.00;99.90
10692;DHT22;5396;50.950;6.988;2023-09-19T14:46:02;21.00;99.90
10692;DHT22;5396;50.950;6.988;2023-09-19T14:48:28;21.00;99.90
10692;DHT22;5396;50.950;6.988;2023-09-19T14:50:54;21.10;99.90
10692;DHT22;5396;50.950;6.988;2023-09-19T14:53:21;21.10;99.90
10692;DHT22;5396;50.950;6.988;2023-09-19T14:55:46;21.10;99.90
10692;DHT22;5396;50.950;6.988;2023-09-19T14:58:13;21.10;99.90
10692;DHT22;5396;50.950;6.988;2023-09-19T15:00:39;21.20;99.90
10692;DHT22;5396;50.950;6.988;2023-09-19T15:03:04;21.40;99.90
10692;DHT22;5396;50.950;6.988;2023-09-19T15:05:31;21.50;99.90
10692;DHT22;5396;50.950;6.988;2023-09-19T15:07:56;21.60;99.90
10692;DHT22;5396;50.950;6.988;2023-09-19T15:10:23;21.50;99.90
10692;DHT22;5396;50.950;6.988;2023-09-19T15:12:49;21.40;99.90
10692;DHT22;5396;50.950;6.988;2023-09-19T15:15:15;21.40;99.90
10692;DHT22;5396;50.950;6.988;2023-09-19T15:17:41;21.20;99.90
10692;DHT22;5396;50.950;6.988;2023-09-19T15:20:07;21.00;99.90
10692;DHT22;5396;50.950;6.988;2023-09-19T15:22:36;20.90;99.90
10692;DHT22;5396;50.950;6.988;2023-09-19T15:25:02;20.80;99.90
10692;DHT22;5396;50.950;6.988;2023-09-19T15:27:29;20.80;99.90
10692;DHT22;5396;50.950;6.988;2023-09-19T15:29:56;20.70;99.90
10692;DHT22;5396;50.950;6.988;2023-09-19T15:32:24;20.70;99.90
10692;DHT22;5396;50.950;6.988;2023-09-19T15:34:53;20.70;99.90
10692;DHT22;5396;50.950;6.988;2023-09-19T15:37:19;20.70;99.90
10692;DHT22;5396;50.950;6.988;2023-09-19T15:39:45;20.60;99.90
10692;DHT22;5396;50.950;6.988;2023-09-19T15:42:11;20.70;99.90
10692;DHT22;5396;50.950;6.988;2023-09-19T15:44:37;20.60;99.90
10692;DHT22;5396;50.950;6.988;2023-09-19T15:47:06;20.60;99.90
10692;DHT22;5396;50.950;6.988;2023-09-19T15:49:31;20.60;99.90
10692;DHT22;5396;50.950;6.988;2023-09-19T15:51:57;20.60;99.90
10692;DHT22;5396;50.950;6.988;2023-09-19T15:54:25;20.60;99.90
10692;DHT22;5396;50.950;6.988;2023-09-19T15:56:51;20.60;99.90
10692;DHT22;5396;50.950;6.988;2023-09-19T15:59:17;20.70;99.90
10692;DHT22;5396;50.950;6.988;2023-09-19T16:01:43;20.70;99.90
10692;DHT22;5396;50.950;6.988;2023-09-19T16:04:09;20.70;99.90
10692;DHT22;5396;50.950;6.988;2023-09-19T16:06:36;20.70;99.90
10692;DHT22;5396;50.950;6.988;2023-09-19T16:09:02;20.70;99.90
10692;DHT22;5396;50.950;6.988;2023-09-19T16:11:30;20.70;99.90
10692;DHT22;5396;50.950;6.988;2023-09-19T16:13:57;20.70;99.90
10692;DHT22;5396;50.950;6.988;2023-09-19T16:16:26;20.80;99.90
10692;DHT22;5396;50.950;6.988;2023-09-19T16:19:04;20.90;99.90
10692;DHT22;5396;50.950;6.988;2023-09-19T16:21:33;21.00;99.90
10692;DHT22;5396;50.950;6.988;2023-09-19T16:24:03;21.00;99.90
10692;DHT22;5396;50.950;6.988;2023-09-19T16:26:29;21.00;99.90
10692;DHT22;5396;50.950;6.988;2023-09-19T16:28:56;21.00;99.90
10692;DHT22;5396;50.950;6.988;2023-09-19T16:31:29;20.90;99.90
10692;DHT22;5396;50.950;6.988;2023-09-19T16:33:55;20.70;99.90
10692;DHT22;5396;50.950;6.988;2023-09-19T16:36:22;20.70;99.90
10692;DHT22;5396;50.950;6.988;2023-09-19T16:38:48;20.60;99.90
10692;DHT22;5396;50.950;6.988;2023-09-19T16:41:15;20.60;99.90
10692;DHT22;5396;50.950;6.988;2023-09-19T16:43:42;20.50;99.90
10692;DHT22;5396;50.950;6.988;2023-09-19T16:46:09;20.50;99.90
10692;DHT22;5396;50.950;6.988;2023-09-19T16:48:45;20.50;99.90